createdAt,value
2019-03-10T00:01:10.931Z,152.87
2019-03-10T00:03:38.569Z,152.45
2019-03-10T00:06:05.776Z,152.32
2019-03-10T00:08:32.879Z,153.50
2019-03-10T00:10:59.947Z,152.40
2019-03-10T00:13:27.621Z,151.07
2019-03-10T00:15:56.533Z,151.85
2019-03-10T00:18:24.020Z,154.05
2019-03-10T00:20:51.069Z,154.85
2019-03-10T00:23:18.363Z,152.75
2019-03-10T00:25:48.586Z,150.87
2019-03-10T00:28:15.683Z,150.78
2019-03-10T00:30:42.738Z,152.57
2019-03-10T00:33:10.737Z,152.02
2019-03-10T00:35:38.872Z,152.43
2019-03-10T00:38:06.220Z,153.53
2019-03-10T00:41:10.604Z,153.05
2019-03-10T00:44:06.159Z,152.07
2019-03-10T00:47:12.622Z,152.78
2019-03-10T00:50:26.955Z,153.23
2019-03-10T00:53:00.684Z,153.35
2019-03-10T00:55:28.117Z,150.78
2019-03-10T00:57:55.209Z,152.17
2019-03-10T01:00:22.279Z,152.20
2019-03-10T01:02:51.328Z,153.93
2019-03-10T01:05:18.429Z,154.38
2019-03-10T01:07:45.678Z,153.75
2019-03-10T01:10:13.367Z,153.02
2019-03-10T01:12:40.729Z,153.27
2019-03-10T01:15:08.649Z,154.05
2019-03-10T01:17:36.871Z,154.27
2019-03-10T01:20:06.342Z,151.72
2019-03-10T01:22:34.192Z,152.22
2019-03-10T01:25:03.314Z,153.15
2019-03-10T01:27:32.514Z,153.02
2019-03-10T01:30:01.696Z,154.00
2019-03-10T01:33:05.407Z,153.57
2019-03-10T01:35:38.282Z,151.95
2019-03-10T01:38:05.547Z,151.60
2019-03-10T01:40:32.651Z,151.82
2019-03-10T01:42:59.725Z,153.07
2019-03-10T01:45:26.806Z,151.22
2019-03-10T01:47:54.967Z,152.38
2019-03-10T01:50:22.061Z,151.97
2019-03-10T01:52:49.515Z,151.32
2019-03-10T01:55:16.582Z,150.18
2019-03-10T01:57:43.706Z,151.97
2019-03-10T02:00:13.344Z,151.57
2019-03-10T02:02:44.623Z,152.12
2019-03-10T02:05:11.784Z,152.95
2019-03-10T02:07:39.346Z,152.32
2019-03-10T02:10:07.911Z,152.60
2019-03-10T02:12:36.594Z,151.97
2019-03-10T02:15:04.845Z,153.23
2019-03-10T02:17:32.545Z,152.47
2019-03-10T02:19:59.768Z,152.07
2019-03-10T02:22:27.387Z,152.75
2019-03-10T02:24:54.474Z,152.20
2019-03-10T02:27:23.711Z,153.35
2019-03-10T02:29:51.248Z,153.15
2019-03-10T02:32:18.387Z,152.17
2019-03-10T02:34:47.262Z,153.87
2019-03-10T02:37:14.809Z,153.00
2019-03-10T02:39:41.934Z,152.75
2019-03-10T02:42:08.999Z,152.90
2019-03-10T02:44:36.458Z,153.70
2019-03-10T02:47:03.586Z,153.23
2019-03-10T02:49:30.691Z,154.20
2019-03-10T02:51:57.920Z,154.45
2019-03-10T02:54:25.660Z,153.27
2019-03-10T02:56:52.985Z,152.10
2019-03-10T02:59:20.463Z,152.82
2019-03-10T03:01:48.014Z,153.07
2019-03-10T03:04:15.562Z,152.50
2019-03-10T03:06:42.675Z,152.75
2019-03-10T03:09:09.757Z,151.78
2019-03-10T03:11:37.651Z,151.35
2019-03-10T03:14:07.825Z,152.05
2019-03-10T03:16:35.282Z,155.95
2019-03-10T03:19:02.484Z,153.93
2019-03-10T03:21:42.203Z,153.15
2019-03-10T03:23:58.662Z,153.68
2019-03-10T03:26:25.941Z,153.07
2019-03-10T03:28:54.188Z,153.68
2019-03-10T03:31:22.652Z,154.40
2019-03-10T03:33:50.821Z,153.65
2019-03-10T03:36:29.752Z,152.60
2019-03-10T03:39:27.230Z,153.18
2019-03-10T03:41:54.430Z,152.20
2019-03-10T03:44:21.516Z,152.57
2019-03-10T03:46:48.623Z,150.93
2019-03-10T03:49:15.755Z,153.90
2019-03-10T03:51:42.924Z,153.50
2019-03-10T03:54:11.214Z,153.95
2019-03-10T03:56:38.345Z,152.85
2019-03-10T03:59:05.440Z,151.60
2019-03-10T04:01:45.106Z,152.68
2019-03-10T04:04:12.196Z,153.45
2019-03-10T04:06:39.240Z,152.02
2019-03-10T04:09:07.401Z,153.40
2019-03-10T04:11:36.494Z,153.32
2019-03-10T04:14:03.891Z,152.15
2019-03-10T04:16:31.437Z,152.45
2019-03-10T04:18:58.492Z,152.53
2019-03-10T04:21:27.396Z,152.80
2019-03-10T04:23:54.618Z,151.63
2019-03-10T04:26:22.180Z,152.40
2019-03-10T04:28:51.110Z,152.72
2019-03-10T04:31:18.263Z,152.80
2019-03-10T04:33:45.334Z,152.62
2019-03-10T04:36:13.504Z,151.95
2019-03-10T04:38:40.819Z,152.85
2019-03-10T04:41:08.199Z,152.65
2019-03-10T04:43:35.274Z,152.43
2019-03-10T04:46:02.389Z,153.97
2019-03-10T04:48:29.441Z,151.95
2019-03-10T04:50:56.510Z,153.25
2019-03-10T04:53:23.657Z,152.35
2019-03-10T04:56:13.972Z,152.00
2019-03-10T04:58:46.319Z,151.53
2019-03-10T05:01:13.375Z,152.68
2019-03-10T05:03:40.447Z,152.38
2019-03-10T05:06:07.808Z,152.72
2019-03-10T05:08:35.304Z,152.22
2019-03-10T05:11:02.406Z,152.30
2019-03-10T05:13:29.579Z,151.42
2019-03-10T05:15:56.641Z,151.85
2019-03-10T05:18:26.001Z,151.70
2019-03-10T05:20:53.137Z,151.07
2019-03-10T05:23:40.232Z,151.45
2019-03-10T05:26:07.817Z,149.07
2019-03-10T05:28:36.683Z,149.82
2019-03-10T05:31:03.781Z,148.82
2019-03-10T05:33:31.955Z,149.87
2019-03-10T05:35:59.368Z,150.50
2019-03-10T05:38:28.251Z,149.07
2019-03-10T05:40:55.365Z,149.10
2019-03-10T05:43:23.543Z,147.82
2019-03-10T05:45:50.638Z,148.32
2019-03-10T05:48:17.766Z,148.93
2019-03-10T05:50:44.843Z,148.15
2019-03-10T05:53:12.087Z,148.38
2019-03-10T05:55:40.408Z,149.07
2019-03-10T05:58:07.511Z,147.93
2019-03-10T06:00:42.689Z,148.45
2019-03-10T06:03:04.180Z,149.23
2019-03-10T06:05:31.419Z,148.90
2019-03-10T06:07:58.506Z,149.40
2019-03-10T06:10:25.745Z,148.22
2019-03-10T06:12:52.849Z,147.78
2019-03-10T06:15:21.053Z,147.72
2019-03-10T06:17:48.751Z,147.78
2019-03-10T06:20:15.810Z,147.02
2019-03-10T06:22:42.914Z,149.80
2019-03-10T06:25:10.322Z,149.53
2019-03-10T06:27:38.782Z,147.50
2019-03-10T06:30:07.565Z,149.15
2019-03-10T06:32:34.984Z,148.60
2019-03-10T06:35:02.044Z,150.72
2019-03-10T06:37:29.170Z,148.53
2019-03-10T06:39:56.659Z,146.82
2019-03-10T06:42:25.187Z,147.43
2019-03-10T06:44:54.065Z,147.10
2019-03-10T06:47:24.246Z,146.75
2019-03-10T06:49:51.825Z,148.17
2019-03-10T06:52:19.021Z,149.25
2019-03-10T06:54:46.351Z,147.62
2019-03-10T06:57:13.417Z,148.75
2019-03-10T06:59:42.311Z,149.25
2019-03-10T07:02:09.606Z,148.20
2019-03-10T07:04:39.372Z,149.18
2019-03-10T07:07:06.451Z,148.55
2019-03-10T07:09:35.295Z,148.00
2019-03-10T07:12:02.403Z,148.55
2019-03-10T07:14:31.264Z,147.50
2019-03-10T07:16:58.423Z,145.87
2019-03-10T07:19:25.523Z,146.25
2019-03-10T07:21:52.597Z,147.00
2019-03-10T07:24:19.785Z,148.02
2019-03-10T07:26:48.892Z,149.30
2019-03-10T07:29:21.331Z,148.47
2019-03-10T07:32:09.069Z,146.85
2019-03-10T07:34:54.679Z,149.32
2019-03-10T07:37:44.297Z,150.53
2019-03-10T07:40:27.710Z,149.32
2019-03-10T07:43:16.214Z,149.82
2019-03-10T07:46:03.877Z,148.10
2019-03-10T07:48:59.737Z,147.72
2019-03-10T07:51:45.569Z,148.13
2019-03-10T07:54:32.259Z,149.15
2019-03-10T07:57:19.635Z,147.55
2019-03-10T08:00:21.449Z,146.18
2019-03-10T08:03:00.670Z,147.78
2019-03-10T08:05:45.998Z,148.30
2019-03-10T08:08:50.605Z,145.95
2019-03-10T08:11:37.592Z,146.37
2019-03-10T08:14:33.429Z,149.40
2019-03-10T08:17:18.474Z,148.32
2019-03-10T08:20:05.224Z,147.15
2019-03-10T08:22:47.247Z,146.93
2019-03-10T08:25:37.136Z,148.43
2019-03-10T08:28:20.382Z,148.72
2019-03-10T08:31:26.128Z,149.20
2019-03-10T08:34:12.856Z,148.62
2019-03-10T08:36:55.910Z,148.43
2019-03-10T08:39:43.029Z,148.60
2019-03-10T08:42:20.445Z,149.60
2019-03-10T08:45:10.092Z,149.50
2019-03-10T08:47:47.593Z,149.75
2019-03-10T08:50:40.790Z,147.65
2019-03-10T08:53:14.979Z,149.12
2019-03-10T08:56:00.167Z,148.87
2019-03-10T08:58:36.746Z,149.87
2019-03-10T09:01:30.063Z,149.30
2019-03-10T09:04:15.793Z,149.97
2019-03-10T09:06:50.847Z,147.85
2019-03-10T09:09:25.374Z,148.78
2019-03-10T09:11:58.951Z,148.87
2019-03-10T09:14:35.997Z,148.68
2019-03-10T09:17:22.043Z,148.65
2019-03-10T09:20:03.726Z,148.20
2019-03-10T09:22:56.553Z,149.12
2019-03-10T09:25:37.186Z,149.15
2019-03-10T09:28:18.235Z,148.93
2019-03-10T09:31:02.890Z,149.05
2019-03-10T09:33:49.547Z,148.95
2019-03-10T09:36:30.339Z,151.87
2019-03-10T09:39:25.776Z,150.10
2019-03-10T09:42:15.126Z,148.93
2019-03-10T09:45:10.884Z,149.65
2019-03-10T09:47:56.529Z,148.75
2019-03-10T09:50:46.247Z,151.72
2019-03-10T09:53:31.903Z,150.95
2019-03-10T09:56:13.032Z,152.00
2019-03-10T09:58:59.154Z,152.45
2019-03-10T10:02:03.740Z,152.75
2019-03-10T10:05:06.944Z,151.55
2019-03-10T10:07:53.873Z,148.55
2019-03-10T10:10:40.001Z,149.35
2019-03-10T10:13:29.665Z,148.35
2019-03-10T10:16:15.177Z,148.87
2019-03-10T10:19:20.295Z,148.78
2019-03-10T10:22:10.196Z,149.95
2019-03-10T10:25:09.612Z,146.57
2019-03-10T10:27:58.507Z,146.55
2019-03-10T10:30:50.135Z,146.93
2019-03-10T10:33:42.226Z,149.35
2019-03-10T10:36:32.433Z,146.82
2019-03-10T10:39:32.547Z,145.57
2019-03-10T10:42:18.162Z,146.55
2019-03-10T10:45:10.960Z,147.22
2019-03-10T10:48:04.461Z,148.35
2019-03-10T10:50:47.401Z,145.92
2019-03-10T10:53:34.564Z,144.93
2019-03-10T10:56:30.187Z,146.62
2019-03-10T10:59:20.710Z,146.85
2019-03-10T11:02:10.618Z,146.22
2019-03-10T11:04:49.581Z,145.60
2019-03-10T11:07:33.237Z,145.87
2019-03-10T11:10:21.948Z,146.87
2019-03-10T11:13:15.035Z,148.15
2019-03-10T11:16:07.710Z,147.40
2019-03-10T11:18:54.537Z,149.12
2019-03-10T11:21:27.779Z,148.70
2019-03-10T11:24:06.764Z,149.47
2019-03-10T11:26:56.313Z,151.40
2019-03-10T11:29:35.821Z,151.00
2019-03-10T11:32:31.814Z,154.63
2019-03-10T11:35:16.937Z,153.95
2019-03-10T11:37:51.029Z,152.47
2019-03-10T11:40:42.200Z,157.70
2019-03-10T11:43:34.726Z,154.05
2019-03-10T11:46:22.439Z,151.95
2019-03-10T11:49:08.172Z,148.97
2019-03-10T11:51:57.856Z,149.23
2019-03-10T11:54:37.860Z,152.38
2019-03-10T11:57:24.524Z,151.37
2019-03-10T11:59:58.563Z,149.57
2019-03-10T12:02:48.583Z,149.57
2019-03-10T12:05:36.949Z,150.18
2019-03-10T12:08:13.342Z,151.55
2019-03-10T12:10:40.443Z,151.42
2019-03-10T12:13:07.819Z,151.90
2019-03-10T12:15:34.937Z,150.57
2019-03-10T12:18:02.072Z,151.80
2019-03-10T12:20:29.255Z,153.75
2019-03-10T12:22:56.780Z,154.12
2019-03-10T12:25:23.992Z,153.40
2019-03-10T12:27:51.192Z,154.12
2019-03-10T12:30:18.470Z,154.18
2019-03-10T12:32:45.592Z,155.27
2019-03-10T12:35:12.772Z,154.18
2019-03-10T12:37:39.879Z,153.38
2019-03-10T12:40:07.921Z,151.68
2019-03-10T12:42:34.973Z,152.75
2019-03-10T12:45:02.154Z,151.65
2019-03-10T12:47:32.067Z,154.35
2019-03-10T12:49:59.548Z,154.87
2019-03-10T12:52:26.732Z,154.45
2019-03-10T12:54:53.885Z,152.20
2019-03-10T12:57:23.920Z,154.63
2019-03-10T12:59:51.812Z,154.20
2019-03-10T13:02:18.921Z,153.62
2019-03-10T13:04:45.977Z,153.27
2019-03-10T13:07:13.054Z,152.75
2019-03-10T13:09:40.208Z,155.05
2019-03-10T13:12:09.071Z,154.38
2019-03-10T13:14:36.289Z,154.85
2019-03-10T13:17:03.517Z,156.05
2019-03-10T13:19:31.118Z,155.37
2019-03-10T13:22:08.760Z,151.47
2019-03-10T13:24:35.935Z,152.27
2019-03-10T13:27:03.016Z,154.18
2019-03-10T13:29:30.458Z,152.45
2019-03-10T13:31:57.542Z,150.97
2019-03-10T13:34:24.657Z,152.43
2019-03-10T13:36:53.586Z,154.80
2019-03-10T13:39:21.679Z,153.30
2019-03-10T13:41:48.756Z,153.20
2019-03-10T13:44:16.435Z,154.87
2019-03-10T13:46:45.318Z,153.60
2019-03-10T13:49:12.453Z,154.50
2019-03-10T13:51:39.567Z,153.18
2019-03-10T13:54:08.757Z,154.45
2019-03-10T13:56:37.642Z,152.47
2019-03-10T13:59:05.112Z,152.47
2019-03-10T14:01:32.353Z,155.12
2019-03-10T14:04:00.345Z,152.50
2019-03-10T14:06:27.477Z,155.18
2019-03-10T14:08:55.128Z,156.40
2019-03-10T14:11:22.711Z,154.18
2019-03-10T14:13:49.800Z,154.45
2019-03-10T14:16:16.858Z,151.72
2019-03-10T14:18:43.940Z,153.50
2019-03-10T14:21:11.017Z,151.00
2019-03-10T14:23:38.847Z,154.00
2019-03-10T14:26:07.801Z,152.50
2019-03-10T14:28:34.905Z,152.65
2019-03-10T14:31:02.024Z,152.35
2019-03-10T14:33:29.083Z,152.90
2019-03-10T14:35:56.207Z,150.90
2019-03-10T14:38:23.456Z,151.22
2019-03-10T14:40:50.541Z,151.75
2019-03-10T14:43:17.584Z,151.75
2019-03-10T14:45:44.662Z,151.78
2019-03-10T14:48:11.927Z,150.95
2019-03-10T14:50:39.103Z,152.55
2019-03-10T14:53:06.161Z,154.23
2019-03-10T14:55:33.279Z,151.50
2019-03-10T14:58:00.329Z,153.93
2019-03-10T15:00:27.577Z,154.05
2019-03-10T15:02:54.615Z,154.20
2019-03-10T15:05:21.795Z,155.03
2019-03-10T15:07:51.115Z,154.10
2019-03-10T15:10:18.278Z,153.35
2019-03-10T15:12:45.364Z,151.85
2019-03-10T15:15:21.655Z,153.25
2019-03-10T15:17:42.070Z,154.03
2019-03-10T15:20:09.917Z,151.22
2019-03-10T15:22:38.246Z,151.50
2019-03-10T15:25:06.943Z,151.45
2019-03-10T15:27:35.094Z,151.95
2019-03-10T15:30:03.509Z,149.72
2019-03-10T15:32:30.880Z,150.20
2019-03-10T15:34:58.108Z,151.45
2019-03-10T15:37:25.254Z,149.87
2019-03-10T15:39:53.245Z,149.32
2019-03-10T15:42:20.638Z,149.72
2019-03-10T15:44:50.217Z,150.10
2019-03-10T15:47:18.742Z,150.40
2019-03-10T15:49:46.022Z,150.82
2019-03-10T15:52:13.383Z,149.42
2019-03-10T15:54:40.475Z,149.45
2019-03-10T15:57:07.996Z,149.87
2019-03-10T15:59:35.301Z,150.15
2019-03-10T16:02:02.715Z,150.27
2019-03-10T16:04:29.816Z,149.18
2019-03-10T16:06:57.010Z,152.75
2019-03-10T16:09:24.687Z,148.40
2019-03-10T16:11:51.937Z,149.42
2019-03-10T16:14:19.023Z,150.45
2019-03-10T16:16:46.152Z,150.60
2019-03-10T16:19:13.224Z,151.37
2019-03-10T16:21:40.381Z,151.60
2019-03-10T16:24:07.913Z,151.40
2019-03-10T16:26:35.540Z,150.90
2019-03-10T16:29:02.758Z,150.57
2019-03-10T16:31:30.162Z,150.80
2019-03-10T16:33:58.857Z,150.05
2019-03-10T16:36:26.270Z,148.82
2019-03-10T16:38:53.461Z,148.85
2019-03-10T16:41:20.680Z,150.40
2019-03-10T16:43:48.897Z,148.17
2019-03-10T16:46:17.284Z,150.90
2019-03-10T16:48:44.410Z,148.32
2019-03-10T16:51:12.090Z,147.85
2019-03-10T16:53:41.618Z,148.40
2019-03-10T16:56:08.293Z,148.55
2019-03-10T16:58:35.404Z,148.30
2019-03-10T17:01:02.472Z,147.87
2019-03-10T17:03:29.861Z,147.43
2019-03-10T17:05:57.248Z,149.25
2019-03-10T17:08:26.528Z,147.32
2019-03-10T17:10:53.699Z,148.45
2019-03-10T17:13:20.856Z,148.07
2019-03-10T17:15:47.989Z,147.28
2019-03-10T17:18:15.597Z,147.68
2019-03-10T17:20:42.710Z,147.07
2019-03-10T17:23:09.746Z,149.00
2019-03-10T17:25:36.922Z,147.78
2019-03-10T17:28:04.611Z,148.53
2019-03-10T17:30:31.748Z,147.93
2019-03-10T17:32:59.092Z,147.85
2019-03-10T17:35:26.194Z,149.00
2019-03-10T17:37:53.923Z,147.53
2019-03-10T17:40:21.211Z,146.77
2019-03-10T17:42:48.564Z,149.97
2019-03-10T17:45:17.291Z,147.78
2019-03-10T17:47:44.617Z,148.22
2019-03-10T17:50:12.060Z,149.27
2019-03-10T17:52:39.157Z,147.47
2019-03-10T17:55:06.664Z,148.97
2019-03-10T17:57:34.038Z,147.95
2019-03-10T18:00:02.637Z,149.25
2019-03-10T18:02:30.996Z,147.87
2019-03-10T18:05:00.371Z,146.93
2019-03-10T18:07:30.004Z,147.90
2019-03-10T18:09:57.401Z,145.80
2019-03-10T18:12:24.519Z,148.97
2019-03-10T18:14:51.648Z,145.68
2019-03-10T18:17:18.742Z,146.53
2019-03-10T18:19:45.825Z,147.70
2019-03-10T18:22:26.441Z,147.53
2019-03-10T18:24:55.084Z,144.53
2019-03-10T18:27:22.772Z,145.17
2019-03-10T18:29:49.930Z,145.02
2019-03-10T18:32:17.089Z,145.38
2019-03-10T18:34:44.471Z,144.55
2019-03-10T18:37:11.534Z,142.10
2019-03-10T18:39:39.019Z,144.15
2019-03-10T18:42:06.534Z,142.98
2019-03-10T18:44:33.604Z,141.12
2019-03-10T18:47:00.714Z,144.97
2019-03-10T18:49:30.086Z,143.32
2019-03-10T18:51:57.214Z,142.80
2019-03-10T18:54:24.359Z,142.45
2019-03-10T18:56:51.607Z,142.32
2019-03-10T18:59:20.719Z,141.07
2019-03-10T19:01:52.090Z,143.45
2019-03-10T19:04:19.493Z,141.62
2019-03-10T19:06:46.669Z,142.25
2019-03-10T19:09:16.369Z,141.45
2019-03-10T19:11:44.025Z,142.40
2019-03-10T19:14:12.232Z,142.18
2019-03-10T19:16:39.357Z,143.13
2019-03-10T19:19:07.200Z,142.05
2019-03-10T19:21:35.450Z,141.62
2019-03-10T19:24:03.064Z,141.92
2019-03-10T19:26:31.140Z,142.07
2019-03-10T19:28:58.317Z,143.00
2019-03-10T19:31:25.494Z,141.80
2019-03-10T19:33:53.064Z,141.73
2019-03-10T19:36:21.685Z,142.62
2019-03-10T19:38:50.979Z,140.77
2019-03-10T19:41:18.688Z,142.87
2019-03-10T19:43:47.636Z,143.72
2019-03-10T19:46:14.827Z,142.45
2019-03-10T19:48:42.013Z,141.57
2019-03-10T19:51:09.428Z,143.90
2019-03-10T19:53:36.735Z,142.35
2019-03-10T19:56:04.216Z,142.40
2019-03-10T19:58:31.951Z,144.22
2019-03-10T20:00:59.134Z,143.30
2019-03-10T20:03:28.295Z,143.87
2019-03-10T20:05:55.577Z,144.13
2019-03-10T20:08:22.715Z,145.50
2019-03-10T20:10:49.891Z,143.07
2019-03-10T20:13:18.598Z,143.57
2019-03-10T20:15:45.776Z,142.40
2019-03-10T20:18:12.870Z,142.95
2019-03-10T20:20:40.934Z,140.22
2019-03-10T20:23:08.445Z,140.22
2019-03-10T20:25:35.520Z,140.75
2019-03-10T20:28:02.626Z,139.28
2019-03-10T20:30:30.508Z,139.60
2019-03-10T20:32:57.582Z,138.62
2019-03-10T20:35:24.931Z,138.35
2019-03-10T20:37:54.976Z,139.12
2019-03-10T20:40:22.312Z,139.07
2019-03-10T20:42:56.798Z,140.62
2019-03-10T20:45:28.344Z,138.55
2019-03-10T20:47:57.049Z,138.52
2019-03-10T20:50:24.275Z,138.15
2019-03-10T20:52:53.562Z,138.80
2019-03-10T20:55:20.700Z,138.28
2019-03-10T20:57:49.721Z,139.60
2019-03-10T21:00:17.126Z,138.95
2019-03-10T21:02:45.419Z,138.95
2019-03-10T21:05:13.004Z,139.05
2019-03-10T21:08:32.676Z,138.95
2019-03-10T21:14:12.999Z,139.88
2019-03-10T21:16:40.106Z,138.20
2019-03-10T21:19:07.450Z,139.82
2019-03-10T21:21:36.002Z,138.95
2019-03-10T21:24:03.086Z,139.62
2019-03-10T21:26:30.643Z,137.75
2019-03-10T21:28:58.100Z,137.45
2019-03-10T21:31:25.198Z,139.92
2019-03-10T21:33:52.330Z,137.20
2019-03-10T21:36:19.869Z,138.70
2019-03-10T21:38:46.949Z,138.70
2019-03-10T21:41:14.708Z,138.95
2019-03-10T21:43:43.047Z,136.92
2019-03-10T21:46:10.240Z,138.92
2019-03-10T21:48:37.357Z,137.65
2019-03-10T21:51:04.441Z,138.47
2019-03-10T21:53:31.505Z,137.68
2019-03-10T21:55:59.077Z,138.07
2019-03-10T21:58:26.167Z,138.03
2019-03-10T22:00:53.263Z,138.95
2019-03-10T22:03:20.316Z,140.40
2019-03-10T22:05:47.398Z,139.18
2019-03-10T22:08:14.768Z,139.00
2019-03-10T22:10:41.859Z,139.43
2019-03-10T22:13:09.301Z,139.43
2019-03-10T22:15:41.580Z,141.22
2019-03-10T22:18:05.929Z,139.72
2019-03-10T22:20:33.081Z,139.07
2019-03-10T22:23:00.148Z,139.05
2019-03-10T22:25:27.220Z,140.92
2019-03-10T22:27:54.417Z,139.30
2019-03-10T22:30:21.681Z,138.15
2019-03-10T22:32:49.302Z,138.70
2019-03-10T22:35:16.364Z,139.22
2019-03-10T22:37:44.944Z,138.85
2019-03-10T22:40:12.238Z,140.32
2019-03-10T22:42:39.611Z,141.15
2019-03-10T22:45:08.049Z,137.85
2019-03-10T22:47:35.071Z,139.55
2019-03-10T22:50:02.923Z,138.85
2019-03-10T22:52:32.209Z,140.70
2019-03-10T22:54:59.795Z,139.22
2019-03-10T22:57:30.277Z,139.20
2019-03-10T22:59:57.817Z,138.90
2019-03-10T23:02:24.868Z,139.55
2019-03-10T23:04:51.911Z,140.57
2019-03-10T23:07:19.065Z,140.28
2019-03-10T23:09:46.130Z,140.00
2019-03-10T23:12:13.241Z,140.45
2019-03-10T23:14:42.107Z,139.45
2019-03-10T23:17:09.143Z,138.97
2019-03-10T23:19:36.358Z,139.75
2019-03-10T23:22:03.413Z,138.68
2019-03-10T23:24:30.455Z,139.50
2019-03-10T23:26:58.232Z,139.00
2019-03-10T23:29:25.457Z,140.22
2019-03-10T23:31:52.603Z,141.12
2019-03-10T23:34:19.674Z,140.22
2019-03-10T23:36:46.733Z,138.72
2019-03-10T23:39:13.780Z,141.05
2019-03-10T23:41:41.349Z,141.68
2019-03-10T23:44:08.394Z,140.97
2019-03-10T23:46:35.469Z,140.60
2019-03-10T23:49:02.541Z,141.05
2019-03-10T23:51:29.654Z,143.28
2019-03-10T23:53:58.313Z,141.68
2019-03-10T23:56:25.647Z,140.88
2019-03-10T23:58:52.711Z,141.97
